sensor_id;sensor_type;location;lat;lon;timestamp;temperature;humidity
46085;DHT22;31823;47.032;8.310;2023-08-07T00:01:45;11.60;99.90
46085;DHT22;31823;47.032;8.310;2023-08-07T00:04:10;11.50;99.90
46085;DHT22;31823;47.032;8.310;2023-08-07T00:06:36;11.40;99.90
46085;DHT22;31823;47.032;8.310;2023-08-07T00:09:02;11.50;99.90
46085;DHT22;31823;47.032;8.310;2023-08-07T00:11:28;11.60;99.90
46085;DHT22;31823;47.032;8.310;2023-08-07T00:13:54;11.60;99.90
46085;DHT22;31823;47.032;8.310;2023-08-07T00:16:19;11.50;99.90
46085;DHT22;31823;47.032;8.310;2023-08-07T00:18:45;11.40;99.90
46085;DHT22;31823;47.032;8.310;2023-08-07T00:21:11;11.40;99.90
46085;DHT22;31823;47.032;8.310;2023-08-07T00:23:36;11.30;99.90
46085;DHT22;31823;47.032;8.310;2023-08-07T00:26:02;11.40;99.90
46085;DHT22;31823;47.032;8.310;2023-08-07T00:28:27;11.50;99.90
46085;DHT22;31823;47.032;8.310;2023-08-07T00:30:55;11.60;99.90
46085;DHT22;31823;47.032;8.310;2023-08-07T00:33:20;11.60;99.90
46085;DHT22;31823;47.032;8.310;2023-08-07T00:35:46;11.60;99.90
46085;DHT22;31823;47.032;8.310;2023-08-07T00:38:11;12.10;99.90
46085;DHT22;31823;47.032;8.310;2023-08-07T00:40:38;12.40;99.90
46085;DHT22;31823;47.032;8.310;2023-08-07T00:43:04;12.20;99.90
46085;DHT22;31823;47.032;8.310;2023-08-07T00:45:29;12.20;99.90
46085;DHT22;31823;47.032;8.310;2023-08-07T00:47:57;12.10;99.90
46085;DHT22;31823;47.032;8.310;2023-08-07T00:50:23;12.20;99.90
46085;DHT22;31823;47.032;8.310;2023-08-07T00:52:49;11.80;99.90
46085;DHT22;31823;47.032;8.310;2023-08-07T00:55:14;11.50;99.90
46085;DHT22;31823;47.032;8.310;2023-08-07T00:57:40;11.50;99.90
46085;DHT22;31823;47.032;8.310;2023-08-07T01:00:06;11.50;99.90
46085;DHT22;31823;47.032;8.310;2023-08-07T01:02:33;11.30;99.90
46085;DHT22;31823;47.032;8.310;2023-08-07T01:04:58;11.20;99.90
46085;DHT22;31823;47.032;8.310;2023-08-07T01:07:25;11.20;99.90
46085;DHT22;31823;47.032;8.310;2023-08-07T01:09:50;11.00;99.90
46085;DHT22;31823;47.032;8.310;2023-08-07T01:12:19;10.90;99.90
46085;DHT22;31823;47.032;8.310;2023-08-07T01:17:21;10.90;99.90
46085;DHT22;31823;47.032;8.310;2023-08-07T01:19:47;10.90;99.90
46085;DHT22;31823;47.032;8.310;2023-08-07T01:22:16;10.80;99.90
46085;DHT22;31823;47.032;8.310;2023-08-07T01:24:44;10.90;99.90
46085;DHT22;31823;47.032;8.310;2023-08-07T01:35:12;11.00;99.90
46085;DHT22;31823;47.032;8.310;2023-08-07T01:37:40;11.00;99.90
46085;DHT22;31823;47.032;8.310;2023-08-07T01:40:07;10.80;99.90
46085;DHT22;31823;47.032;8.310;2023-08-07T01:42:34;10.90;99.90
46085;DHT22;31823;47.032;8.310;2023-08-07T01:45:00;10.80;99.90
46085;DHT22;31823;47.032;8.310;2023-08-07T01:47:26;11.00;99.90
46085;DHT22;31823;47.032;8.310;2023-08-07T01:49:51;10.90;99.90
46085;DHT22;31823;47.032;8.310;2023-08-07T01:52:17;11.00;99.90
46085;DHT22;31823;47.032;8.310;2023-08-07T01:54:42;10.90;99.90
46085;DHT22;31823;47.032;8.310;2023-08-07T01:57:08;10.80;99.90
46085;DHT22;31823;47.032;8.310;2023-08-07T01:59:33;10.80;99.90
46085;DHT22;31823;47.032;8.310;2023-08-07T02:01:59;10.70;99.90
46085;DHT22;31823;47.032;8.310;2023-08-07T02:04:24;10.70;99.90
46085;DHT22;31823;47.032;8.310;2023-08-07T02:06:50;10.90;99.90
46085;DHT22;31823;47.032;8.310;2023-08-07T02:09:16;10.90;99.90
46085;DHT22;31823;47.032;8.310;2023-08-07T02:11:41;11.00;99.90
46085;DHT22;31823;47.032;8.310;2023-08-07T02:14:07;11.00;99.90
46085;DHT22;31823;47.032;8.310;2023-08-07T02:16:33;10.90;99.90
46085;DHT22;31823;47.032;8.310;2023-08-07T02:18:59;10.90;99.90
46085;DHT22;31823;47.032;8.310;2023-08-07T02:21:24;10.90;99.90
46085;DHT22;31823;47.032;8.310;2023-08-07T02:23:50;10.90;99.90
46085;DHT22;31823;47.032;8.310;2023-08-07T02:26:15;10.80;99.90
46085;DHT22;31823;47.032;8.310;2023-08-07T02:28:41;10.80;99.90
46085;DHT22;31823;47.032;8.310;2023-08-07T02:31:06;10.80;99.90
46085;DHT22;31823;47.032;8.310;2023-08-07T02:33:32;10.80;99.90
46085;DHT22;31823;47.032;8.310;2023-08-07T02:35:58;11.00;99.90
46085;DHT22;31823;47.032;8.310;2023-08-07T02:38:25;11.30;99.90
46085;DHT22;31823;47.032;8.310;2023-08-07T02:40:50;12.00;99.90
46085;DHT22;31823;47.032;8.310;2023-08-07T02:43:16;12.10;99.90
46085;DHT22;31823;47.032;8.310;2023-08-07T02:45:41;12.00;99.90
46085;DHT22;31823;47.032;8.310;2023-08-07T02:48:07;12.00;99.90
46085;DHT22;31823;47.032;8.310;2023-08-07T02:50:32;11.50;99.90
46085;DHT22;31823;47.032;8.310;2023-08-07T02:52:59;11.30;99.90
46085;DHT22;31823;47.032;8.310;2023-08-07T02:55:24;11.00;99.90
46085;DHT22;31823;47.032;8.310;2023-08-07T02:57:50;10.80;99.90
46085;DHT22;31823;47.032;8.310;2023-08-07T03:00:15;10.70;99.90
46085;DHT22;31823;47.032;8.310;2023-08-07T03:02:41;10.70;99.90
46085;DHT22;31823;47.032;8.310;2023-08-07T03:05:07;10.60;99.90
46085;DHT22;31823;47.032;8.310;2023-08-07T03:07:32;10.40;99.90
46085;DHT22;31823;47.032;8.310;2023-08-07T03:09:58;10.50;99.90
46085;DHT22;31823;47.032;8.310;2023-08-07T03:12:24;10.50;99.90
46085;DHT22;31823;47.032;8.310;2023-08-07T03:14:49;10.50;99.90
46085;DHT22;31823;47.032;8.310;2023-08-07T03:17:15;10.60;99.90
46085;DHT22;31823;47.032;8.310;2023-08-07T03:19:42;10.50;99.90
46085;DHT22;31823;47.032;8.310;2023-08-07T03:22:08;10.40;99.90
46085;DHT22;31823;47.032;8.310;2023-08-07T03:24:34;10.40;99.90
46085;DHT22;31823;47.032;8.310;2023-08-07T03:26:59;10.50;99.90
46085;DHT22;31823;47.032;8.310;2023-08-07T03:29:25;10.60;99.90
46085;DHT22;31823;47.032;8.310;2023-08-07T03:31:51;10.60;99.90
46085;DHT22;31823;47.032;8.310;2023-08-07T03:34:16;10.60;99.90
46085;DHT22;31823;47.032;8.310;2023-08-07T03:36:42;10.50;99.90
46085;DHT22;31823;47.032;8.310;2023-08-07T03:39:07;10.70;99.90
46085;DHT22;31823;47.032;8.310;2023-08-07T03:41:33;10.80;99.90
46085;DHT22;31823;47.032;8.310;2023-08-07T03:43:58;11.50;99.90
46085;DHT22;31823;47.032;8.310;2023-08-07T03:46:24;11.80;99.90
46085;DHT22;31823;47.032;8.310;2023-08-07T03:48:49;11.80;99.90
46085;DHT22;31823;47.032;8.310;2023-08-07T03:51:15;11.90;99.90
46085;DHT22;31823;47.032;8.310;2023-08-07T03:53:42;12.00;99.90
46085;DHT22;31823;47.032;8.310;2023-08-07T03:56:08;11.40;99.90
46085;DHT22;31823;47.032;8.310;2023-08-07T03:58:33;11.20;99.90
46085;DHT22;31823;47.032;8.310;2023-08-07T04:00:59;11.00;99.90
46085;DHT22;31823;47.032;8.310;2023-08-07T04:03:24;10.80;99.90
46085;DHT22;31823;47.032;8.310;2023-08-07T04:05:54;10.80;99.90
46085;DHT22;31823;47.032;8.310;2023-08-07T04:08:21;10.70;99.90
46085;DHT22;31823;47.032;8.310;2023-08-07T04:11:01;10.60;99.90
46085;DHT22;31823;47.032;8.310;2023-08-07T04:13:27;10.70;99.90
46085;DHT22;31823;47.032;8.310;2023-08-07T04:15:53;10.50;99.90
46085;DHT22;31823;47.032;8.310;2023-08-07T04:18:19;10.40;99.90
46085;DHT22;31823;47.032;8.310;2023-08-07T04:20:54;10.40;99.90
46085;DHT22;31823;47.032;8.310;2023-08-07T04:23:20;10.40;99.90
46085;DHT22;31823;47.032;8.310;2023-08-07T04:25:50;10.50;99.90
46085;DHT22;31823;47.032;8.310;2023-08-07T04:28:16;10.50;99.90
46085;DHT22;31823;47.032;8.310;2023-08-07T04:30:43;10.60;99.90
46085;DHT22;31823;47.032;8.310;2023-08-07T04:33:09;10.70;99.90
46085;DHT22;31823;47.032;8.310;2023-08-07T04:35:34;10.60;99.90
46085;DHT22;31823;47.032;8.310;2023-08-07T04:38:00;10.50;99.90
46085;DHT22;31823;47.032;8.310;2023-08-07T04:40:27;10.50;99.90
46085;DHT22;31823;47.032;8.310;2023-08-07T04:42:52;10.60;99.90
46085;DHT22;31823;47.032;8.310;2023-08-07T04:45:18;10.50;99.90
46085;DHT22;31823;47.032;8.310;2023-08-07T04:47:43;10.70;99.90
46085;DHT22;31823;47.032;8.310;2023-08-07T04:50:09;10.80;99.90
46085;DHT22;31823;47.032;8.310;2023-08-07T04:52:35;10.60;99.90
46085;DHT22;31823;47.032;8.310;2023-08-07T04:55:01;10.70;99.90
46085;DHT22;31823;47.032;8.310;2023-08-07T04:57:26;10.80;99.90
46085;DHT22;31823;47.032;8.310;2023-08-07T04:59:52;10.80;99.90
46085;DHT22;31823;47.032;8.310;2023-08-07T05:02:18;10.70;99.90
46085;DHT22;31823;47.032;8.310;2023-08-07T05:04:44;10.60;99.90
46085;DHT22;31823;47.032;8.310;2023-08-07T05:07:10;10.70;99.90
46085;DHT22;31823;47.032;8.310;2023-08-07T05:09:36;10.70;99.90
46085;DHT22;31823;47.032;8.310;2023-08-07T05:12:01;10.60;99.90
46085;DHT22;31823;47.032;8.310;2023-08-07T05:14:28;10.70;99.90
46085;DHT22;31823;47.032;8.310;2023-08-07T05:16:54;10.90;99.90
46085;DHT22;31823;47.032;8.310;2023-08-07T05:19:19;10.90;99.90
46085;DHT22;31823;47.032;8.310;2023-08-07T05:21:45;10.70;99.90
46085;DHT22;31823;47.032;8.310;2023-08-07T05:24:15;10.80;99.90
46085;DHT22;31823;47.032;8.310;2023-08-07T05:26:41;11.50;99.90
46085;DHT22;31823;47.032;8.310;2023-08-07T05:29:06;11.10;99.90
46085;DHT22;31823;47.032;8.310;2023-08-07T05:31:33;10.90;99.90
46085;DHT22;31823;47.032;8.310;2023-08-07T05:33:59;10.90;99.90
46085;DHT22;31823;47.032;8.310;2023-08-07T05:36:24;10.80;99.90
46085;DHT22;31823;47.032;8.310;2023-08-07T05:38:50;10.90;99.90
46085;DHT22;31823;47.032;8.310;2023-08-07T05:41:15;10.90;99.90
46085;DHT22;31823;47.032;8.310;2023-08-07T05:43:41;10.80;99.90
46085;DHT22;31823;47.032;8.310;2023-08-07T05:46:07;10.80;99.90
46085;DHT22;31823;47.032;8.310;2023-08-07T05:48:33;10.80;99.90
46085;DHT22;31823;47.032;8.310;2023-08-07T05:50:58;10.80;99.90
46085;DHT22;31823;47.032;8.310;2023-08-07T05:53:24;11.00;99.90
46085;DHT22;31823;47.032;8.310;2023-08-07T05:55:49;11.10;99.90
46085;DHT22;31823;47.032;8.310;2023-08-07T05:58:15;11.20;99.90
46085;DHT22;31823;47.032;8.310;2023-08-07T06:00:40;11.20;99.90
46085;DHT22;31823;47.032;8.310;2023-08-07T06:03:06;11.20;99.90
46085;DHT22;31823;47.032;8.310;2023-08-07T06:05:33;11.20;99.90
46085;DHT22;31823;47.032;8.310;2023-08-07T06:07:59;11.70;99.90
46085;DHT22;31823;47.032;8.310;2023-08-07T06:10:25;11.40;99.90
46085;DHT22;31823;47.032;8.310;2023-08-07T06:12:50;11.40;99.90
46085;DHT22;31823;47.032;8.310;2023-08-07T06:15:16;11.40;99.90
46085;DHT22;31823;47.032;8.310;2023-08-07T06:17:41;11.40;99.90
46085;DHT22;31823;47.032;8.310;2023-08-07T06:20:08;11.30;99.90
46085;DHT22;31823;47.032;8.310;2023-08-07T06:22:35;11.30;99.90
46085;DHT22;31823;47.032;8.310;2023-08-07T06:25:01;11.30;99.90
46085;DHT22;31823;47.032;8.310;2023-08-07T06:27:26;11.20;99.90
46085;DHT22;31823;47.032;8.310;2023-08-07T06:29:52;11.30;99.90
46085;DHT22;31823;47.032;8.310;2023-08-07T06:32:17;11.40;99.90
46085;DHT22;31823;47.032;8.310;2023-08-07T06:34:43;11.70;99.90
46085;DHT22;31823;47.032;8.310;2023-08-07T06:37:09;11.70;99.90
46085;DHT22;31823;47.032;8.310;2023-08-07T06:39:34;11.60;99.90
46085;DHT22;31823;47.032;8.310;2023-08-07T06:42:00;11.60;99.90
46085;DHT22;31823;47.032;8.310;2023-08-07T06:44:26;11.70;99.90
46085;DHT22;31823;47.032;8.310;2023-08-07T06:46:52;11.80;99.90
46085;DHT22;31823;47.032;8.310;2023-08-07T06:49:17;11.70;99.90
46085;DHT22;31823;47.032;8.310;2023-08-07T06:51:43;11.70;99.90
46085;DHT22;31823;47.032;8.310;2023-08-07T06:54:08;11.80;99.90
46085;DHT22;31823;47.032;8.310;2023-08-07T06:56:34;11.90;99.90
46085;DHT22;31823;47.032;8.310;2023-08-07T06:59:00;12.10;99.90
46085;DHT22;31823;47.032;8.310;2023-08-07T07:01:25;12.10;99.90
46085;DHT22;31823;47.032;8.310;2023-08-07T07:03:51;12.60;99.90
46085;DHT22;31823;47.032;8.310;2023-08-07T07:06:18;12.80;99.90
46085;DHT22;31823;47.032;8.310;2023-08-07T07:08:44;12.70;99.90
46085;DHT22;31823;47.032;8.310;2023-08-07T07:11:10;12.70;99.90
46085;DHT22;31823;47.032;8.310;2023-08-07T07:13:35;12.90;99.90
46085;DHT22;31823;47.032;8.310;2023-08-07T07:16:01;12.80;99.90
46085;DHT22;31823;47.032;8.310;2023-08-07T07:18:27;12.90;99.90
46085;DHT22;31823;47.032;8.310;2023-08-07T07:20:57;13.20;99.90
46085;DHT22;31823;47.032;8.310;2023-08-07T07:23:24;13.30;99.90
46085;DHT22;31823;47.032;8.310;2023-08-07T07:25:49;13.10;99.90
46085;DHT22;31823;47.032;8.310;2023-08-07T07:28:15;13.00;99.90
46085;DHT22;31823;47.032;8.310;2023-08-07T07:30:40;13.00;99.90
46085;DHT22;31823;47.032;8.310;2023-08-07T07:33:06;13.00;99.90
46085;DHT22;31823;47.032;8.310;2023-08-07T07:35:32;12.90;99.90
46085;DHT22;31823;47.032;8.310;2023-08-07T07:37:58;13.00;99.90
46085;DHT22;31823;47.032;8.310;2023-08-07T07:40:23;13.10;99.90
46085;DHT22;31823;47.032;8.310;2023-08-07T07:42:49;13.20;99.90
46085;DHT22;31823;47.032;8.310;2023-08-07T07:45:14;13.30;99.90
46085;DHT22;31823;47.032;8.310;2023-08-07T07:47:40;13.30;99.90
46085;DHT22;31823;47.032;8.310;2023-08-07T07:50:09;13.30;99.90
46085;DHT22;31823;47.032;8.310;2023-08-07T07:52:35;13.30;99.90
46085;DHT22;31823;47.032;8.310;2023-08-07T07:55:01;13.40;99.90
46085;DHT22;31823;47.032;8.310;2023-08-07T07:57:26;13.50;99.90
46085;DHT22;31823;47.032;8.310;2023-08-07T07:59:52;13.40;99.90
46085;DHT22;31823;47.032;8.310;2023-08-07T08:02:17;13.70;99.90
46085;DHT22;31823;47.032;8.310;2023-08-07T08:04:43;14.50;99.90
46085;DHT22;31823;47.032;8.310;2023-08-07T08:07:09;14.70;99.90
46085;DHT22;31823;47.032;8.310;2023-08-07T08:09:34;14.40;99.90
46085;DHT22;31823;47.032;8.310;2023-08-07T08:12:00;14.10;99.90
46085;DHT22;31823;47.032;8.310;2023-08-07T08:14:25;14.00;99.90
46085;DHT22;31823;47.032;8.310;2023-08-07T08:16:51;14.40;99.90
46085;DHT22;31823;47.032;8.310;2023-08-07T08:19:17;14.60;99.90
46085;DHT22;31823;47.032;8.310;2023-08-07T08:21:42;14.70;99.90
46085;DHT22;31823;47.032;8.310;2023-08-07T08:24:08;14.60;99.90
46085;DHT22;31823;47.032;8.310;2023-08-07T08:26:34;14.70;99.90
46085;DHT22;31823;47.032;8.310;2023-08-07T08:29:00;14.80;99.90
46085;DHT22;31823;47.032;8.310;2023-08-07T08:31:25;14.80;99.90
46085;DHT22;31823;47.032;8.310;2023-08-07T08:33:51;14.80;99.90
46085;DHT22;31823;47.032;8.310;2023-08-07T08:36:16;14.60;99.90
46085;DHT22;31823;47.032;8.310;2023-08-07T08:38:43;14.60;99.90
46085;DHT22;31823;47.032;8.310;2023-08-07T08:41:10;14.40;99.90
46085;DHT22;31823;47.032;8.310;2023-08-07T08:43:38;14.10;99.90
46085;DHT22;31823;47.032;8.310;2023-08-07T08:46:05;14.20;99.90
46085;DHT22;31823;47.032;8.310;2023-08-07T08:48:34;14.50;99.90
46085;DHT22;31823;47.032;8.310;2023-08-07T08:51:02;14.40;99.90
46085;DHT22;31823;47.032;8.310;2023-08-07T08:53:32;14.50;99.90
46085;DHT22;31823;47.032;8.310;2023-08-07T08:55:58;14.60;99.90
46085;DHT22;31823;47.032;8.310;2023-08-07T08:58:25;14.40;99.90
46085;DHT22;31823;47.032;8.310;2023-08-07T09:00:51;14.40;99.90
46085;DHT22;31823;47.032;8.310;2023-08-07T09:03:18;14.50;99.90
46085;DHT22;31823;47.032;8.310;2023-08-07T09:05:45;14.60;99.90
46085;DHT22;31823;47.032;8.310;2023-08-07T09:08:12;14.70;99.90
46085;DHT22;31823;47.032;8.310;2023-08-07T09:10:37;14.90;99.90
46085;DHT22;31823;47.032;8.310;2023-08-07T09:13:04;15.00;99.90
46085;DHT22;31823;47.032;8.310;2023-08-07T09:15:36;15.00;99.90
46085;DHT22;31823;47.032;8.310;2023-08-07T09:18:05;15.00;99.90
46085;DHT22;31823;47.032;8.310;2023-08-07T09:20:34;15.00;99.90
46085;DHT22;31823;47.032;8.310;2023-08-07T09:23:00;15.00;99.90
46085;DHT22;31823;47.032;8.310;2023-08-07T09:25:33;15.10;99.90
46085;DHT22;31823;47.032;8.310;2023-08-07T09:28:02;15.20;99.50
46085;DHT22;31823;47.032;8.310;2023-08-07T09:30:32;15.40;99.90
46085;DHT22;31823;47.032;8.310;2023-08-07T09:33:00;15.50;99.00
46085;DHT22;31823;47.032;8.310;2023-08-07T09:35:26;15.40;99.90
46085;DHT22;31823;47.032;8.310;2023-08-07T09:37:52;15.20;99.30
46085;DHT22;31823;47.032;8.310;2023-08-07T09:40:18;15.00;99.50
46085;DHT22;31823;47.032;8.310;2023-08-07T09:42:44;15.10;99.90
46085;DHT22;31823;47.032;8.310;2023-08-07T09:45:26;15.10;98.60
46085;DHT22;31823;47.032;8.310;2023-08-07T09:48:05;15.10;99.00
46085;DHT22;31823;47.032;8.310;2023-08-07T09:50:33;15.10;98.30
46085;DHT22;31823;47.032;8.310;2023-08-07T09:52:59;15.10;99.50
46085;DHT22;31823;47.032;8.310;2023-08-07T09:55:25;15.20;99.90
46085;DHT22;31823;47.032;8.310;2023-08-07T09:57:51;15.20;99.90
46085;DHT22;31823;47.032;8.310;2023-08-07T10:00:18;15.10;99.80
46085;DHT22;31823;47.032;8.310;2023-08-07T10:02:47;15.20;97.90
46085;DHT22;31823;47.032;8.310;2023-08-07T10:05:14;15.60;98.10
46085;DHT22;31823;47.032;8.310;2023-08-07T10:07:40;16.50;98.70
46085;DHT22;31823;47.032;8.310;2023-08-07T10:10:07;17.00;97.50
46085;DHT22;31823;47.032;8.310;2023-08-07T10:12:34;17.60;96.10
46085;DHT22;31823;47.032;8.310;2023-08-07T10:15:00;18.10;96.00
46085;DHT22;31823;47.032;8.310;2023-08-07T10:17:26;18.50;94.50
46085;DHT22;31823;47.032;8.310;2023-08-07T10:19:52;18.20;93.60
46085;DHT22;31823;47.032;8.310;2023-08-07T10:22:24;17.70;95.30
46085;DHT22;31823;47.032;8.310;2023-08-07T10:24:50;18.60;94.80
46085;DHT22;31823;47.032;8.310;2023-08-07T10:27:19;18.10;93.90
46085;DHT22;31823;47.032;8.310;2023-08-07T10:29:47;17.70;95.10
46085;DHT22;31823;47.032;8.310;2023-08-07T10:32:15;17.40;94.60
46085;DHT22;31823;47.032;8.310;2023-08-07T10:34:47;17.70;97.20
46085;DHT22;31823;47.032;8.310;2023-08-07T10:37:42;17.00;94.90
46085;DHT22;31823;47.032;8.310;2023-08-07T10:40:10;16.90;95.90
46085;DHT22;31823;47.032;8.310;2023-08-07T10:45:18;17.10;95.10
46085;DHT22;31823;47.032;8.310;2023-08-07T10:47:57;17.50;94.00
46085;DHT22;31823;47.032;8.310;2023-08-07T10:50:34;17.60;95.20
46085;DHT22;31823;47.032;8.310;2023-08-07T10:53:04;17.50;94.30
46085;DHT22;31823;47.032;8.310;2023-08-07T10:55:45;17.30;93.80
46085;DHT22;31823;47.032;8.310;2023-08-07T10:58:22;17.30;95.00
46085;DHT22;31823;47.032;8.310;2023-08-07T11:00:48;17.50;94.90
46085;DHT22;31823;47.032;8.310;2023-08-07T11:03:25;16.90;93.00
46085;DHT22;31823;47.032;8.310;2023-08-07T11:05:51;16.60;93.50
46085;DHT22;31823;47.032;8.310;2023-08-07T11:08:22;16.70;94.70
46085;DHT22;31823;47.032;8.310;2023-08-07T11:10:47;16.70;94.50
46085;DHT22;31823;47.032;8.310;2023-08-07T11:13:13;17.10;93.00
46085;DHT22;31823;47.032;8.310;2023-08-07T11:15:38;17.40;93.90
46085;DHT22;31823;47.032;8.310;2023-08-07T11:18:04;17.50;92.60
46085;DHT22;31823;47.032;8.310;2023-08-07T11:20:30;17.30;91.30
46085;DHT22;31823;47.032;8.310;2023-08-07T11:22:55;17.30;92.30
46085;DHT22;31823;47.032;8.310;2023-08-07T11:25:21;17.40;94.80
46085;DHT22;31823;47.032;8.310;2023-08-07T11:27:46;17.50;92.70
46085;DHT22;31823;47.032;8.310;2023-08-07T11:30:12;17.40;95.40
46085;DHT22;31823;47.032;8.310;2023-08-07T11:32:38;17.10;93.40
46085;DHT22;31823;47.032;8.310;2023-08-07T11:35:04;17.00;93.70
46085;DHT22;31823;47.032;8.310;2023-08-07T11:37:31;17.00;96.80
46085;DHT22;31823;47.032;8.310;2023-08-07T11:40:01;17.00;96.70
46085;DHT22;31823;47.032;8.310;2023-08-07T11:42:28;17.10;94.60
46085;DHT22;31823;47.032;8.310;2023-08-07T11:44:54;17.30;92.70
46085;DHT22;31823;47.032;8.310;2023-08-07T11:47:20;17.70;95.90
46085;DHT22;31823;47.032;8.310;2023-08-07T11:49:45;18.00;95.30
46085;DHT22;31823;47.032;8.310;2023-08-07T11:52:11;17.90;95.00
46085;DHT22;31823;47.032;8.310;2023-08-07T11:54:39;17.40;92.80
46085;DHT22;31823;47.032;8.310;2023-08-07T11:57:16;17.30;93.40
46085;DHT22;31823;47.032;8.310;2023-08-07T11:59:42;17.00;93.30
46085;DHT22;31823;47.032;8.310;2023-08-07T12:02:11;17.00;94.10
46085;DHT22;31823;47.032;8.310;2023-08-07T12:04:40;16.80;93.10
46085;DHT22;31823;47.032;8.310;2023-08-07T12:07:05;16.70;98.80
46085;DHT22;31823;47.032;8.310;2023-08-07T12:09:31;16.20;99.90
46085;DHT22;31823;47.032;8.310;2023-08-07T12:11:59;16.10;99.90
46085;DHT22;31823;47.032;8.310;2023-08-07T12:14:31;16.50;99.90
46085;DHT22;31823;47.032;8.310;2023-08-07T12:16:56;17.90;99.90
46085;DHT22;31823;47.032;8.310;2023-08-07T12:19:22;19.40;95.50
46085;DHT22;31823;47.032;8.310;2023-08-07T12:21:47;18.70;94.40
46085;DHT22;31823;47.032;8.310;2023-08-07T12:24:13;18.00;93.00
46085;DHT22;31823;47.032;8.310;2023-08-07T12:26:39;17.80;97.20
46085;DHT22;31823;47.032;8.310;2023-08-07T12:29:05;17.10;97.10
46085;DHT22;31823;47.032;8.310;2023-08-07T12:31:30;17.40;94.00
46085;DHT22;31823;47.032;8.310;2023-08-07T12:33:56;17.60;98.40
46085;DHT22;31823;47.032;8.310;2023-08-07T12:36:21;17.50;95.40
46085;DHT22;31823;47.032;8.310;2023-08-07T12:38:47;17.60;95.70
46085;DHT22;31823;47.032;8.310;2023-08-07T12:41:13;17.70;94.80
46085;DHT22;31823;47.032;8.310;2023-08-07T12:43:39;17.70;93.40
46085;DHT22;31823;47.032;8.310;2023-08-07T12:46:05;18.00;94.00
46085;DHT22;31823;47.032;8.310;2023-08-07T12:48:30;18.00;94.10
46085;DHT22;31823;47.032;8.310;2023-08-07T12:50:56;18.00;95.40
46085;DHT22;31823;47.032;8.310;2023-08-07T12:53:21;17.80;94.10
46085;DHT22;31823;47.032;8.310;2023-08-07T12:55:47;17.50;95.20
46085;DHT22;31823;47.032;8.310;2023-08-07T12:58:12;17.20;95.00
46085;DHT22;31823;47.032;8.310;2023-08-07T13:00:38;17.20;96.00
46085;DHT22;31823;47.032;8.310;2023-08-07T13:03:03;17.20;93.20
46085;DHT22;31823;47.032;8.310;2023-08-07T13:05:29;17.20;94.60
46085;DHT22;31823;47.032;8.310;2023-08-07T13:07:56;17.10;93.50
46085;DHT22;31823;47.032;8.310;2023-08-07T13:10:24;16.90;98.50
46085;DHT22;31823;47.032;8.310;2023-08-07T13:12:53;16.90;93.60
46085;DHT22;31823;47.032;8.310;2023-08-07T13:15:18;16.90;93.50
46085;DHT22;31823;47.032;8.310;2023-08-07T13:17:44;17.00;94.90
46085;DHT22;31823;47.032;8.310;2023-08-07T13:20:12;16.90;95.00
46085;DHT22;31823;47.032;8.310;2023-08-07T13:22:42;16.80;94.90
46085;DHT22;31823;47.032;8.310;2023-08-07T13:25:09;16.70;96.50
46085;DHT22;31823;47.032;8.310;2023-08-07T13:27:35;16.20;97.60
46085;DHT22;31823;47.032;8.310;2023-08-07T13:30:02;15.90;99.00
46085;DHT22;31823;47.032;8.310;2023-08-07T13:32:28;15.80;99.60
46085;DHT22;31823;47.032;8.310;2023-08-07T13:34:54;15.50;99.90
46085;DHT22;31823;47.032;8.310;2023-08-07T13:37:20;15.30;99.90
46085;DHT22;31823;47.032;8.310;2023-08-07T13:39:45;15.10;99.90
46085;DHT22;31823;47.032;8.310;2023-08-07T13:42:13;15.20;99.90
46085;DHT22;31823;47.032;8.310;2023-08-07T13:44:39;15.20;99.90
46085;DHT22;31823;47.032;8.310;2023-08-07T13:47:05;15.00;99.90
46085;DHT22;31823;47.032;8.310;2023-08-07T13:49:30;15.10;99.90
46085;DHT22;31823;47.032;8.310;2023-08-07T13:51:56;15.10;99.90
46085;DHT22;31823;47.032;8.310;2023-08-07T13:54:21;16.10;99.90
46085;DHT22;31823;47.032;8.310;2023-08-07T13:56:47;16.90;99.90
46085;DHT22;31823;47.032;8.310;2023-08-07T13:59:13;17.10;99.90
46085;DHT22;31823;47.032;8.310;2023-08-07T14:01:39;17.20;99.90
46085;DHT22;31823;47.032;8.310;2023-08-07T14:04:05;17.50;99.90
46085;DHT22;31823;47.032;8.310;2023-08-07T14:06:31;17.50;99.90
46085;DHT22;31823;47.032;8.310;2023-08-07T14:08:57;18.10;99.90
46085;DHT22;31823;47.032;8.310;2023-08-07T14:11:22;18.30;99.90
46085;DHT22;31823;47.032;8.310;2023-08-07T14:13:53;17.50;99.90
46085;DHT22;31823;47.032;8.310;2023-08-07T14:16:18;17.40;99.90
46085;DHT22;31823;47.032;8.310;2023-08-07T14:18:44;17.00;99.90
46085;DHT22;31823;47.032;8.310;2023-08-07T14:21:09;16.80;99.90
46085;DHT22;31823;47.032;8.310;2023-08-07T14:23:35;16.60;99.90
46085;DHT22;31823;47.032;8.310;2023-08-07T14:26:01;16.60;99.90
46085;DHT22;31823;47.032;8.310;2023-08-07T14:28:27;16.70;99.90
46085;DHT22;31823;47.032;8.310;2023-08-07T14:30:56;16.50;99.90
46085;DHT22;31823;47.032;8.310;2023-08-07T14:33:22;16.60;99.90
46085;DHT22;31823;47.032;8.310;2023-08-07T14:35:47;16.40;99.90
46085;DHT22;31823;47.032;8.310;2023-08-07T14:38:13;16.20;99.90
46085;DHT22;31823;47.032;8.310;2023-08-07T14:40:39;16.30;99.90
46085;DHT22;31823;47.032;8.310;2023-08-07T14:43:06;16.00;99.90
46085;DHT22;31823;47.032;8.310;2023-08-07T14:45:32;16.10;99.90
46085;DHT22;31823;47.032;8.310;2023-08-07T14:47:58;16.10;99.90
46085;DHT22;31823;47.032;8.310;2023-08-07T14:50:23;16.00;99.90
46085;DHT22;31823;47.032;8.310;2023-08-07T14:52:49;16.00;99.90
46085;DHT22;31823;47.032;8.310;2023-08-07T14:55:14;15.80;99.90
46085;DHT22;31823;47.032;8.310;2023-08-07T14:57:40;15.70;99.90
46085;DHT22;31823;47.032;8.310;2023-08-07T15:00:06;15.60;99.90
46085;DHT22;31823;47.032;8.310;2023-08-07T15:02:34;15.60;99.90
46085;DHT22;31823;47.032;8.310;2023-08-07T15:04:59;15.80;99.90
46085;DHT22;31823;47.032;8.310;2023-08-07T15:07:25;15.70;99.90
46085;DHT22;31823;47.032;8.310;2023-08-07T15:09:50;15.70;99.90
46085;DHT22;31823;47.032;8.310;2023-08-07T15:12:16;15.60;99.90
46085;DHT22;31823;47.032;8.310;2023-08-07T15:14:42;15.40;99.90
46085;DHT22;31823;47.032;8.310;2023-08-07T15:17:07;15.30;99.90
46085;DHT22;31823;47.032;8.310;2023-08-07T15:19:33;14.70;99.90
46085;DHT22;31823;47.032;8.310;2023-08-07T15:21:58;14.20;99.90
46085;DHT22;31823;47.032;8.310;2023-08-07T15:24:24;13.70;99.90
46085;DHT22;31823;47.032;8.310;2023-08-07T15:26:49;13.60;99.90
46085;DHT22;31823;47.032;8.310;2023-08-07T15:29:15;13.70;99.90
46085;DHT22;31823;47.032;8.310;2023-08-07T15:31:40;13.60;99.90
46085;DHT22;31823;47.032;8.310;2023-08-07T15:34:06;13.90;99.90
46085;DHT22;31823;47.032;8.310;2023-08-07T15:36:31;14.00;99.90
46085;DHT22;31823;47.032;8.310;2023-08-07T15:38:57;13.80;99.90